createdAt,value
2023-04-03T00:00:54.567Z,1.76
2023-04-03T00:01:54.509Z,1.73
2023-04-03T00:02:54.511Z,1.74
2023-04-03T00:03:54.525Z,1.73
2023-04-03T00:04:54.438Z,1.74
2023-04-03T00:05:54.422Z,1.73
2023-04-03T00:06:54.498Z,1.70
2023-04-03T00:07:54.396Z,1.74
2023-04-03T00:08:54.404Z,1.73
2023-04-03T00:09:54.405Z,1.70
2023-04-03T00:10:55.338Z,1.68
2023-04-03T00:11:54.354Z,1.66
2023-04-03T00:12:54.355Z,1.63
2023-04-03T00:13:58.504Z,1.66
2023-04-03T00:14:54.349Z,1.67
2023-04-03T00:15:54.367Z,1.66
2023-04-03T00:16:54.323Z,1.66
2023-04-03T00:17:54.332Z,1.63
2023-04-03T00:18:54.294Z,1.68
2023-04-03T00:19:54.288Z,1.68
2023-04-03T00:20:54.265Z,1.71
2023-04-03T00:21:54.277Z,1.67
2023-04-03T00:22:54.512Z,1.60
2023-04-03T00:23:54.231Z,1.53
2023-04-03T00:24:54.215Z,1.49
2023-04-03T00:25:54.202Z,1.48
2023-04-03T00:26:54.200Z,1.45
2023-04-03T00:27:54.204Z,1.44
2023-04-03T00:28:54.201Z,1.42
2023-04-03T00:29:55.125Z,1.41
2023-04-03T00:30:54.206Z,1.40
2023-04-03T00:31:54.137Z,1.37
2023-04-03T00:32:54.170Z,1.35
2023-04-03T00:33:54.160Z,1.32
2023-04-03T00:34:54.096Z,1.32
2023-04-03T00:35:54.160Z,1.34
2023-04-03T00:36:54.139Z,1.45
2023-04-03T00:37:54.076Z,1.52
2023-04-03T00:38:54.072Z,1.66
2023-04-03T00:39:54.090Z,1.68
2023-04-03T00:40:54.040Z,1.66
2023-04-03T00:41:54.041Z,1.67
2023-04-03T00:42:54.043Z,1.63
2023-04-03T00:43:54.018Z,1.62
2023-04-03T00:44:55.077Z,1.59
2023-04-03T00:45:54.038Z,1.59
2023-04-03T00:46:53.983Z,1.59
2023-04-03T00:47:53.989Z,1.62
2023-04-03T00:48:53.994Z,1.62
2023-04-03T00:49:53.935Z,1.62
2023-04-03T00:50:53.943Z,1.63
2023-04-03T00:51:53.917Z,1.63
2023-04-03T00:52:53.946Z,1.62
2023-04-03T00:53:53.928Z,1.58
2023-04-03T00:54:53.894Z,1.55
2023-04-03T00:55:53.905Z,1.56
2023-04-03T00:56:53.897Z,1.53
2023-04-03T00:57:53.842Z,1.53
2023-04-03T00:58:53.876Z,1.55
2023-04-03T00:59:53.842Z,1.58
2023-04-03T01:00:53.875Z,1.59
2023-04-03T01:01:53.826Z,1.58
2023-04-03T01:02:53.809Z,1.59
2023-04-03T01:03:53.844Z,1.60
2023-04-03T01:04:53.781Z,1.62
2023-04-03T01:05:53.776Z,1.63
2023-04-03T01:06:53.789Z,1.63
2023-04-03T01:07:53.746Z,1.63
2023-04-03T01:08:53.758Z,1.66
2023-04-03T01:09:53.730Z,1.67
2023-04-03T01:10:53.724Z,1.63
2023-04-03T01:11:53.705Z,1.66
2023-04-03T01:12:53.735Z,1.66
2023-04-03T01:13:53.695Z,1.67
2023-04-03T01:14:53.667Z,1.68
2023-04-03T01:15:55.257Z,1.70
2023-04-03T01:16:53.657Z,1.71
2023-04-03T01:17:53.669Z,1.74
2023-04-03T01:18:53.670Z,1.76
2023-04-03T01:19:53.632Z,1.74
2023-04-03T01:20:53.590Z,1.73
2023-04-03T01:21:53.584Z,1.76
2023-04-03T01:22:53.588Z,1.76
2023-04-03T01:23:53.606Z,1.74
2023-04-03T01:24:53.570Z,1.73
2023-04-03T01:25:53.575Z,1.73
2023-04-03T01:26:53.542Z,1.74
2023-04-03T01:27:53.536Z,1.70
2023-04-03T01:28:53.549Z,1.73
2023-04-03T01:29:53.565Z,1.70
2023-04-03T01:30:53.500Z,1.70
2023-04-03T01:31:53.652Z,1.68
2023-04-03T01:32:53.507Z,1.68
2023-04-03T01:33:53.481Z,1.68
2023-04-03T01:34:53.452Z,1.67
2023-04-03T01:35:53.515Z,1.66
2023-04-03T01:36:54.407Z,1.63
2023-04-03T01:37:53.444Z,1.66
2023-04-03T01:38:53.467Z,1.63
2023-04-03T01:39:53.408Z,1.62
2023-04-03T01:40:53.419Z,1.62
2023-04-03T01:41:53.403Z,1.59
2023-04-03T01:42:53.428Z,1.59
2023-04-03T01:43:53.385Z,1.59
2023-04-03T01:44:53.469Z,1.60
2023-04-03T01:45:54.485Z,1.60
2023-04-03T01:46:54.199Z,1.59
2023-04-03T01:47:53.363Z,1.58
2023-04-03T01:48:53.319Z,1.58
2023-04-03T01:49:53.303Z,1.56
2023-04-03T01:50:53.288Z,1.56
2023-04-03T01:51:53.485Z,1.55
2023-04-03T01:52:53.400Z,1.55
2023-04-03T01:53:53.259Z,1.53
2023-04-03T01:54:53.561Z,1.53
2023-04-03T01:55:54.197Z,1.53
2023-04-03T01:56:53.309Z,1.52
2023-04-03T01:57:53.283Z,1.55
2023-04-03T01:58:54.215Z,1.52
2023-04-03T01:59:53.194Z,1.48
2023-04-03T02:00:53.258Z,1.45
2023-04-03T02:01:53.166Z,1.45
2023-04-03T02:02:53.627Z,1.42
2023-04-03T02:03:54.637Z,1.41
2023-04-03T02:04:53.137Z,1.41
2023-04-03T02:05:54.029Z,1.40
2023-04-03T02:06:53.183Z,1.38
2023-04-03T02:07:57.564Z,1.35
2023-04-03T02:08:53.115Z,1.32
2023-04-03T02:09:53.060Z,1.31
2023-04-03T02:10:53.108Z,1.30
2023-04-03T02:11:53.078Z,1.26
2023-04-03T02:12:53.069Z,1.24
2023-04-03T02:13:53.047Z,1.24
2023-04-03T02:14:53.033Z,1.23
2023-04-03T02:15:53.007Z,1.19
2023-04-03T02:16:53.073Z,1.16
2023-04-03T02:17:53.029Z,1.14
2023-04-03T02:18:53.033Z,1.13
2023-04-03T02:19:54.435Z,1.13
2023-04-03T02:20:52.960Z,1.14
2023-04-03T02:21:52.937Z,1.16
2023-04-03T02:22:52.937Z,1.19
2023-04-03T02:23:52.930Z,1.19
2023-04-03T02:24:53.737Z,1.19
2023-04-03T02:25:52.889Z,1.19
2023-04-03T02:26:52.886Z,1.17
2023-04-03T02:27:52.889Z,1.14
2023-04-03T02:28:54.336Z,1.13
2023-04-03T02:29:52.885Z,1.14
2023-04-03T02:30:52.872Z,1.14
2023-04-03T02:31:52.866Z,1.14
2023-04-03T02:32:52.988Z,1.14
2023-04-03T02:33:52.853Z,1.14
2023-04-03T02:34:52.798Z,1.16
2023-04-03T02:35:53.078Z,1.16
2023-04-03T02:36:52.782Z,1.17
2023-04-03T02:37:52.785Z,1.17
2023-04-03T02:38:52.816Z,1.16
2023-04-03T02:39:52.741Z,1.16
2023-04-03T02:40:52.737Z,1.16
2023-04-03T02:41:52.731Z,1.17
2023-04-03T02:42:52.755Z,1.17
2023-04-03T02:43:53.767Z,1.16
2023-04-03T02:44:52.740Z,1.16
2023-04-03T02:45:52.701Z,1.20
2023-04-03T02:46:52.684Z,1.17
2023-04-03T02:47:52.716Z,1.19
2023-04-03T02:48:52.666Z,1.20
2023-04-03T02:49:52.680Z,1.20
2023-04-03T02:50:52.621Z,1.17
2023-04-03T02:51:52.604Z,1.20
2023-04-03T02:52:52.643Z,1.20
2023-04-03T02:53:52.592Z,1.22
2023-04-03T02:54:52.584Z,1.23
2023-04-03T02:55:52.609Z,1.24
2023-04-03T02:56:52.618Z,1.26
2023-04-03T02:57:52.552Z,1.28
2023-04-03T02:58:52.557Z,1.28
2023-04-03T02:59:52.554Z,1.28
2023-04-03T03:00:52.511Z,1.31
2023-04-03T03:01:52.561Z,1.31
2023-04-03T03:02:52.515Z,1.31
2023-04-03T03:03:52.479Z,1.34
2023-04-03T03:04:52.540Z,1.32
2023-04-03T03:05:53.960Z,1.35
2023-04-03T03:06:52.441Z,1.35
2023-04-03T03:07:52.469Z,1.37
2023-04-03T03:08:52.434Z,1.37
2023-04-03T03:09:53.365Z,1.37
2023-04-03T03:10:52.905Z,1.37
2023-04-03T03:11:53.232Z,1.35
2023-04-03T03:12:52.383Z,1.32
2023-04-03T03:13:52.381Z,1.31
2023-04-03T03:14:52.380Z,1.31
2023-04-03T03:15:52.573Z,1.30
2023-04-03T03:16:53.192Z,1.26
2023-04-03T03:17:53.220Z,1.26
2023-04-03T03:18:53.785Z,1.26
2023-04-03T03:19:53.361Z,1.22
2023-04-03T03:20:53.765Z,1.22
2023-04-03T03:21:52.862Z,1.20
2023-04-03T03:22:53.081Z,1.17
2023-04-03T03:23:53.753Z,1.17
2023-04-03T03:24:52.564Z,1.14
2023-04-03T03:25:53.721Z,1.12
2023-04-03T03:26:52.266Z,1.10
2023-04-03T03:27:52.251Z,1.12
2023-04-03T03:28:52.213Z,1.13
2023-04-03T03:29:53.168Z,1.13
2023-04-03T03:30:52.188Z,1.13
2023-04-03T03:31:53.074Z,1.14
2023-04-03T03:32:53.704Z,1.13
2023-04-03T03:33:52.248Z,1.16
2023-04-03T03:34:52.146Z,1.16
2023-04-03T03:35:52.193Z,1.17
2023-04-03T03:36:52.145Z,1.20
2023-04-03T03:37:53.087Z,1.23
2023-04-03T03:38:52.095Z,1.26
2023-04-03T03:39:52.369Z,1.32
2023-04-03T03:40:56.039Z,1.34
2023-04-03T03:41:52.067Z,1.40
2023-04-03T03:42:52.055Z,1.40
2023-04-03T03:43:52.158Z,1.44
2023-04-03T03:44:52.054Z,1.49
2023-04-03T03:45:52.040Z,1.52
2023-04-03T03:46:52.067Z,1.55
2023-04-03T03:47:52.120Z,1.60
2023-04-03T03:48:52.865Z,1.62
2023-04-03T03:49:52.526Z,1.66
2023-04-03T03:50:52.225Z,1.68
2023-04-03T03:51:51.978Z,1.68
2023-04-03T03:52:51.947Z,1.71
2023-04-03T03:53:51.968Z,1.73
2023-04-03T03:54:51.912Z,1.76
2023-04-03T03:55:51.967Z,1.80
2023-04-03T03:56:51.934Z,1.85
2023-04-03T03:57:51.912Z,1.87
2023-04-03T03:58:51.912Z,1.92
2023-04-03T03:59:51.875Z,1.94
2023-04-03T04:00:51.878Z,1.97
2023-04-03T04:01:51.990Z,1.99
2023-04-03T04:02:51.943Z,1.99
2023-04-03T04:03:51.865Z,2.02
2023-04-03T04:04:51.969Z,2.04
2023-04-03T04:05:51.808Z,2.06
2023-04-03T04:06:51.903Z,2.04
2023-04-03T04:07:51.784Z,2.04
2023-04-03T04:08:51.816Z,2.04
2023-04-03T04:09:51.763Z,2.06
2023-04-03T04:10:51.789Z,2.07
2023-04-03T04:11:51.751Z,2.08
2023-04-03T04:12:51.799Z,2.10
2023-04-03T04:13:51.756Z,2.13
2023-04-03T04:14:51.944Z,2.15
2023-04-03T04:15:53.160Z,2.18
2023-04-03T04:16:51.793Z,2.22
2023-04-03T04:17:52.559Z,2.24
2023-04-03T04:18:51.662Z,2.25
2023-04-03T04:19:51.666Z,2.28
2023-04-03T04:20:51.636Z,2.35
2023-04-03T04:21:51.935Z,2.46
2023-04-03T04:22:53.076Z,2.47
2023-04-03T04:23:51.613Z,2.47
2023-04-03T04:24:52.036Z,2.46
2023-04-03T04:25:51.624Z,2.43
2023-04-03T04:26:51.592Z,2.43
2023-04-03T04:27:52.585Z,2.43
2023-04-03T04:28:51.608Z,2.43
2023-04-03T04:29:51.561Z,2.42
2023-04-03T04:30:51.640Z,2.39
2023-04-03T04:31:53.003Z,2.38
2023-04-03T04:32:52.093Z,2.35
2023-04-03T04:33:51.521Z,2.35
2023-04-03T04:34:51.535Z,2.35
2023-04-03T04:35:51.643Z,2.35
2023-04-03T04:36:51.545Z,2.36
2023-04-03T04:37:51.497Z,2.35
2023-04-03T04:38:51.455Z,2.32
2023-04-03T04:39:51.447Z,2.32
2023-04-03T04:40:51.732Z,2.29
2023-04-03T04:41:51.438Z,2.28
2023-04-03T04:42:51.419Z,2.28
2023-04-03T04:43:51.422Z,2.29
2023-04-03T04:44:51.380Z,2.31
2023-04-03T04:45:51.404Z,2.32
2023-04-03T04:46:51.372Z,2.33
2023-04-03T04:47:51.379Z,2.38
2023-04-03T04:48:51.332Z,2.39
2023-04-03T04:49:51.355Z,2.42
2023-04-03T04:50:51.299Z,2.44
2023-04-03T04:51:52.501Z,2.47
2023-04-03T04:52:51.282Z,2.49
2023-04-03T04:53:51.281Z,2.49
2023-04-03T04:54:51.572Z,2.50
2023-04-03T04:55:51.258Z,2.50
2023-04-03T04:56:51.299Z,2.49
2023-04-03T04:57:51.259Z,2.50
2023-04-03T04:58:52.720Z,2.51
2023-04-03T04:59:51.218Z,2.53
2023-04-03T05:00:51.234Z,2.53
2023-04-03T05:01:51.236Z,2.53
2023-04-03T05:02:51.251Z,2.51
2023-04-03T05:03:51.790Z,2.53
2023-04-03T05:04:51.332Z,2.54
2023-04-03T05:05:51.216Z,2.54
2023-04-03T05:06:51.393Z,2.56
2023-04-03T05:07:51.216Z,2.56
2023-04-03T05:08:51.120Z,2.56
2023-04-03T05:09:51.184Z,2.56
2023-04-03T05:10:51.130Z,2.57
2023-04-03T05:11:51.110Z,2.57
2023-04-03T05:12:51.077Z,2.57
2023-04-03T05:13:51.113Z,2.57
2023-04-03T05:14:51.058Z,2.56
2023-04-03T05:15:51.081Z,2.57
2023-04-03T05:16:52.552Z,2.56
2023-04-03T05:17:51.097Z,2.57
2023-04-03T05:18:51.011Z,2.57
2023-04-03T05:19:51.040Z,2.60
2023-04-03T05:20:51.027Z,2.60
2023-04-03T05:21:51.000Z,2.57
2023-04-03T05:22:51.013Z,2.60
2023-04-03T05:23:50.974Z,2.61
2023-04-03T05:24:51.943Z,2.57
2023-04-03T05:25:50.966Z,2.57
2023-04-03T05:26:50.922Z,2.53
2023-04-03T05:27:51.012Z,2.51
2023-04-03T05:28:50.962Z,2.50
2023-04-03T05:29:51.951Z,2.47
2023-04-03T05:30:50.871Z,2.46
2023-04-03T05:31:50.911Z,2.44
2023-04-03T05:32:50.901Z,2.43
2023-04-03T05:33:50.886Z,2.39
2023-04-03T05:34:50.845Z,2.36
2023-04-03T05:35:50.902Z,2.33
2023-04-03T05:36:50.813Z,2.33
2023-04-03T05:37:50.812Z,2.33
2023-04-03T05:38:50.807Z,2.32
2023-04-03T05:39:50.795Z,2.31
2023-04-03T05:40:50.803Z,2.32
2023-04-03T05:41:50.777Z,2.33
2023-04-03T05:42:50.851Z,2.35
2023-04-03T05:43:50.761Z,2.35
2023-04-03T05:44:50.718Z,2.33
2023-04-03T05:45:50.824Z,2.35
2023-04-03T05:46:50.712Z,2.36
2023-04-03T05:47:50.729Z,2.38
2023-04-03T05:48:50.702Z,2.39
2023-04-03T05:49:50.696Z,2.42
2023-04-03T05:50:50.660Z,2.39
2023-04-03T05:51:50.681Z,2.39
2023-04-03T05:52:50.657Z,2.42
2023-04-03T05:53:50.654Z,2.44
2023-04-03T05:54:50.639Z,2.46
2023-04-03T05:55:51.406Z,2.44
2023-04-03T05:56:50.642Z,2.47
2023-04-03T05:57:50.658Z,2.50
2023-04-03T05:58:50.586Z,2.51
2023-04-03T05:59:50.575Z,2.53
2023-04-03T06:00:50.581Z,2.54
2023-04-03T06:01:50.537Z,2.57
2023-04-03T06:02:50.788Z,2.60
2023-04-03T06:03:50.763Z,2.61
2023-04-03T06:04:50.651Z,2.62
2023-04-03T06:05:50.499Z,2.65
2023-04-03T06:06:50.550Z,2.65
2023-04-03T06:07:50.507Z,2.67
2023-04-03T06:08:50.469Z,2.67
2023-04-03T06:09:50.473Z,2.69
2023-04-03T06:10:50.460Z,2.72
2023-04-03T06:11:50.453Z,2.74
2023-04-03T06:12:50.454Z,2.75
2023-04-03T06:13:50.420Z,2.77
2023-04-03T06:14:50.395Z,2.79
2023-04-03T06:15:50.391Z,2.82
2023-04-03T06:16:50.417Z,2.83
2023-04-03T06:17:50.428Z,2.83
2023-04-03T06:18:50.386Z,2.85
2023-04-03T06:19:50.336Z,2.87
2023-04-03T06:20:50.334Z,2.87
2023-04-03T06:21:50.334Z,2.90
2023-04-03T06:22:50.321Z,2.93
2023-04-03T06:23:50.302Z,2.95
2023-04-03T06:24:50.342Z,2.97
2023-04-03T06:25:50.273Z,2.98
2023-04-03T06:26:50.290Z,2.98
2023-04-03T06:27:50.363Z,3.01
2023-04-03T06:28:50.245Z,3.01
2023-04-03T06:29:50.251Z,3.05
2023-04-03T06:30:50.256Z,3.08
2023-04-03T06:31:50.286Z,3.10
2023-04-03T06:32:50.238Z,3.13
2023-04-03T06:33:50.204Z,3.13
2023-04-03T06:34:50.172Z,3.16
2023-04-03T06:35:50.203Z,3.18
2023-04-03T06:36:50.153Z,3.19
2023-04-03T06:37:50.154Z,3.21
2023-04-03T06:38:50.149Z,3.21
2023-04-03T06:39:50.203Z,3.23
2023-04-03T06:40:50.148Z,3.23
2023-04-03T06:41:50.104Z,3.25
2023-04-03T06:42:50.117Z,3.25
2023-04-03T06:43:51.033Z,3.28
2023-04-03T06:44:50.099Z,3.29
2023-04-03T06:45:50.091Z,3.32
2023-04-03T06:46:50.058Z,3.34
2023-04-03T06:47:50.113Z,3.37
2023-04-03T06:48:50.041Z,3.37
2023-04-03T06:49:50.019Z,3.42
2023-04-03T06:50:50.088Z,3.45
2023-04-03T06:51:50.007Z,3.47
2023-04-03T06:52:50.055Z,3.45
2023-04-03T06:53:49.975Z,3.50
2023-04-03T06:54:50.006Z,3.50
2023-04-03T06:55:49.960Z,3.53
2023-04-03T06:56:49.996Z,3.55
2023-04-03T06:57:49.937Z,3.56
2023-04-03T06:58:49.905Z,3.58
2023-04-03T06:59:49.930Z,3.60
2023-04-03T07:00:49.903Z,3.62
2023-04-03T07:01:49.935Z,3.65
2023-04-03T07:02:50.808Z,3.63
2023-04-03T07:03:49.860Z,3.65
2023-04-03T07:04:49.890Z,3.66
2023-04-03T07:05:49.854Z,3.68
2023-04-03T07:06:49.855Z,3.68
2023-04-03T07:07:49.844Z,3.68
2023-04-03T07:08:49.826Z,3.69
2023-04-03T07:09:49.829Z,3.70
2023-04-03T07:10:49.778Z,3.69
2023-04-03T07:11:49.798Z,3.70
2023-04-03T07:12:49.761Z,3.76
2023-04-03T07:13:49.778Z,3.77
2023-04-03T07:14:49.732Z,3.80
2023-04-03T07:15:49.788Z,3.80
2023-04-03T07:16:49.720Z,3.84
2023-04-03T07:17:49.760Z,3.87
2023-04-03T07:18:49.706Z,3.91
2023-04-03T07:19:49.686Z,3.92
2023-04-03T07:20:49.689Z,3.95
2023-04-03T07:21:49.664Z,3.99
2023-04-03T07:22:49.798Z,3.98
2023-04-03T07:24:49.627Z,4.04
2023-04-03T07:25:49.634Z,4.05
2023-04-03T07:26:49.646Z,4.06
2023-04-03T07:27:49.650Z,4.08
2023-04-03T07:28:49.598Z,4.12
2023-04-03T07:29:49.586Z,4.14
2023-04-03T07:30:49.565Z,4.16
2023-04-03T07:31:49.556Z,4.17
2023-04-03T07:32:49.642Z,4.20
2023-04-03T07:33:49.555Z,4.24
2023-04-03T07:34:49.529Z,4.24
2023-04-03T07:35:49.551Z,4.26
2023-04-03T07:36:49.498Z,4.30
2023-04-03T07:37:49.476Z,4.32
2023-04-03T07:38:50.123Z,4.34
2023-04-03T07:39:49.466Z,4.37
2023-04-03T07:40:49.478Z,4.40
2023-04-03T07:41:49.447Z,4.41
2023-04-03T07:42:49.458Z,4.42
2023-04-03T07:43:49.420Z,4.44
2023-04-03T07:44:49.450Z,4.49
2023-04-03T07:45:49.480Z,4.53
2023-04-03T07:46:49.429Z,4.53
2023-04-03T07:47:49.412Z,4.58
2023-04-03T07:48:49.407Z,4.58
2023-04-03T07:49:50.234Z,4.59
2023-04-03T07:50:49.390Z,4.62
2023-04-03T07:51:50.194Z,4.68
2023-04-03T07:52:49.331Z,4.74
2023-04-03T07:53:49.314Z,4.78
2023-04-03T07:54:50.263Z,4.84
2023-04-03T07:55:49.299Z,4.87
2023-04-03T07:56:49.388Z,4.87
2023-04-03T07:57:49.362Z,4.87
2023-04-03T07:58:49.263Z,4.89
2023-04-03T07:59:49.232Z,4.90
2023-04-03T08:00:49.295Z,4.92
2023-04-03T08:01:49.893Z,4.92
2023-04-03T08:02:49.278Z,4.92
2023-04-03T08:03:49.879Z,4.92
2023-04-03T08:04:49.359Z,4.92
2023-04-03T08:05:49.225Z,4.93
2023-04-03T08:06:49.162Z,4.93
2023-04-03T08:07:49.164Z,4.96
2023-04-03T08:08:49.154Z,4.97
2023-04-03T08:09:49.164Z,4.99
2023-04-03T08:10:49.124Z,5.02
2023-04-03T08:11:49.106Z,5.02
2023-04-03T08:12:49.109Z,5.05
2023-04-03T08:13:49.088Z,5.07
2023-04-03T08:14:49.116Z,5.10
2023-04-03T08:15:49.068Z,5.12
2023-04-03T08:16:49.110Z,5.15
2023-04-03T08:17:49.201Z,5.18
2023-04-03T08:18:49.027Z,5.21
2023-04-03T08:19:50.174Z,5.25
2023-04-03T08:20:49.878Z,5.28
2023-04-03T08:21:49.033Z,5.30
2023-04-03T08:22:49.102Z,5.32
2023-04-03T08:23:49.070Z,5.36
2023-04-03T08:24:58.710Z,5.39
2023-04-03T08:25:50.116Z,5.43
2023-04-03T08:26:48.947Z,5.46
2023-04-03T08:27:49.075Z,5.48
2023-04-03T08:28:49.111Z,5.50
2023-04-03T08:29:48.917Z,5.53
2023-04-03T08:30:48.997Z,5.54
2023-04-03T08:31:48.886Z,5.54
2023-04-03T08:32:48.927Z,5.59
2023-04-03T08:33:48.860Z,5.62
2023-04-03T08:34:48.868Z,5.64
2023-04-03T08:35:49.730Z,5.66
2023-04-03T08:36:48.859Z,5.69
2023-04-03T08:37:48.970Z,5.69
2023-04-03T08:38:48.859Z,5.73
2023-04-03T08:39:48.834Z,5.79
2023-04-03T08:40:48.852Z,5.84
2023-04-03T08:41:49.072Z,5.89
2023-04-03T08:42:48.878Z,5.91
2023-04-03T08:43:50.187Z,5.97
2023-04-03T08:44:48.761Z,5.99
2023-04-03T08:45:49.833Z,6.02
2023-04-03T08:46:49.714Z,6.04
2023-04-03T08:47:48.874Z,6.04
2023-04-03T08:48:48.776Z,6.05
2023-04-03T08:49:48.887Z,6.07
2023-04-03T08:50:53.180Z,6.08
2023-04-03T08:51:48.729Z,6.07
2023-04-03T08:52:48.766Z,6.11
2023-04-03T08:53:48.705Z,6.12
2023-04-03T08:54:48.637Z,6.16
2023-04-03T08:55:48.627Z,6.17
2023-04-03T08:56:48.632Z,6.20
2023-04-03T08:57:48.624Z,6.19
2023-04-03T08:58:48.618Z,6.22
2023-04-03T08:59:48.601Z,6.24
2023-04-03T09:00:48.607Z,6.26
2023-04-03T09:01:48.675Z,6.26
2023-04-03T09:02:48.808Z,6.26
2023-04-03T09:03:48.650Z,6.26
2023-04-03T09:04:48.673Z,6.28
2023-04-03T09:05:48.518Z,6.27
2023-04-03T09:06:48.565Z,6.30
2023-04-03T09:07:49.790Z,6.30
2023-04-03T09:08:48.507Z,6.33
2023-04-03T09:09:48.487Z,6.35
2023-04-03T09:10:48.496Z,6.36
2023-04-03T09:11:48.454Z,6.36
2023-04-03T09:12:48.460Z,6.38
2023-04-03T09:13:48.423Z,6.39
2023-04-03T09:14:49.464Z,6.41
2023-04-03T09:15:48.423Z,6.42
2023-04-03T09:16:48.396Z,6.45
2023-04-03T09:17:48.531Z,6.46
2023-04-03T09:18:48.390Z,6.48
2023-04-03T09:19:48.376Z,6.51
2023-04-03T09:20:49.328Z,6.54
2023-04-03T09:21:49.830Z,6.54
2023-04-03T09:22:52.395Z,6.56
2023-04-03T09:23:48.333Z,6.59
2023-04-03T09:24:49.250Z,6.59
2023-04-03T09:25:48.297Z,6.62
2023-04-03T09:26:49.865Z,6.64
2023-04-03T09:27:48.335Z,6.67
2023-04-03T09:28:50.803Z,6.74
2023-04-03T09:29:48.269Z,6.79
2023-04-03T09:30:48.252Z,6.82
2023-04-03T09:31:52.611Z,6.87
2023-04-03T09:32:48.339Z,6.92
2023-04-03T09:33:48.241Z,6.93
2023-04-03T09:34:48.211Z,6.96
2023-04-03T09:35:49.038Z,6.97
2023-04-03T09:36:48.337Z,6.99
2023-04-03T09:37:48.292Z,7.00
2023-04-03T09:38:48.378Z,6.99
2023-04-03T09:39:48.154Z,7.00
2023-04-03T09:40:48.146Z,7.02
2023-04-03T09:41:48.156Z,7.06
2023-04-03T09:42:55.329Z,7.10
2023-04-03T09:43:49.115Z,7.10
2023-04-03T09:44:48.099Z,7.13
2023-04-03T09:45:48.072Z,7.14
2023-04-03T09:46:48.093Z,7.15
2023-04-03T09:47:48.132Z,7.17
2023-04-03T09:48:50.007Z,7.15
2023-04-03T09:49:48.050Z,7.15
2023-04-03T09:50:48.057Z,7.15
2023-04-03T09:51:48.022Z,7.18
2023-04-03T09:52:48.535Z,7.21
2023-04-03T09:53:48.007Z,7.24
2023-04-03T09:54:47.989Z,7.25
2023-04-03T09:55:47.960Z,7.29
2023-04-03T09:56:47.953Z,7.31
2023-04-03T09:57:47.959Z,7.35
2023-04-03T09:58:50.737Z,7.39
2023-04-03T09:59:47.956Z,7.42
2023-04-03T10:00:47.961Z,7.53
2023-04-03T10:01:47.901Z,7.69
2023-04-03T10:02:48.059Z,7.80
2023-04-03T10:03:48.003Z,7.97
2023-04-03T10:04:53.080Z,8.16
2023-04-03T10:05:48.864Z,8.36
2023-04-03T10:06:47.898Z,8.52
2023-04-03T10:07:58.182Z,8.61
2023-04-03T10:08:58.185Z,8.61
2023-04-03T10:09:47.818Z,8.63
2023-04-03T10:10:47.814Z,8.70
2023-04-03T10:11:47.827Z,8.78
2023-04-03T10:12:47.796Z,8.92
2023-04-03T10:14:47.769Z,9.14
2023-04-03T10:15:47.740Z,9.25
2023-04-03T10:16:47.774Z,9.34
2023-04-03T10:17:47.827Z,9.40
2023-04-03T10:18:47.713Z,9.40
2023-04-03T10:19:47.755Z,9.39
2023-04-03T10:20:47.692Z,9.36
2023-04-03T10:21:47.820Z,9.31
2023-04-03T10:22:47.667Z,9.23
2023-04-03T10:23:47.668Z,9.19
2023-04-03T10:24:47.676Z,9.14
2023-04-03T10:25:47.646Z,9.14
2023-04-03T10:26:47.640Z,9.13
2023-04-03T10:27:47.609Z,9.14
2023-04-03T10:28:47.624Z,9.14
2023-04-03T10:29:47.588Z,9.19
2023-04-03T10:30:47.611Z,9.22
2023-04-03T10:31:47.560Z,9.23
2023-04-03T10:32:47.588Z,9.25
2023-04-03T10:33:47.556Z,9.25
2023-04-03T10:35:02.278Z,9.25
2023-04-03T10:35:48.549Z,9.23
2023-04-03T10:36:47.526Z,9.19
2023-04-03T10:37:48.480Z,9.14
2023-04-03T10:38:47.500Z,9.08
2023-04-03T10:39:47.516Z,9.04
2023-04-03T10:40:48.444Z,9.00
2023-04-03T10:41:47.451Z,8.99
2023-04-03T10:42:47.470Z,8.95
2023-04-03T10:43:48.918Z,8.92
2023-04-03T10:44:47.420Z,8.91
2023-04-03T10:45:47.452Z,8.89
2023-04-03T10:46:47.553Z,8.87
2023-04-03T10:47:47.408Z,8.84
2023-04-03T10:48:48.340Z,8.81
2023-04-03T10:50:47.363Z,8.78
2023-04-03T10:51:47.386Z,8.73
2023-04-03T10:52:47.538Z,8.74
2023-04-03T10:53:47.325Z,8.78
2023-04-03T10:54:47.380Z,8.79
2023-04-03T10:55:47.319Z,8.79
2023-04-03T10:56:51.182Z,8.78
2023-04-03T10:57:48.479Z,8.74
2023-04-03T10:58:47.297Z,8.73
2023-04-03T10:59:47.283Z,8.73
2023-04-03T11:00:47.257Z,8.74
2023-04-03T11:01:47.280Z,8.74
2023-04-03T11:02:47.390Z,8.76
2023-04-03T11:03:47.331Z,8.79
2023-04-03T11:04:47.774Z,8.81
2023-04-03T11:05:47.229Z,8.81
2023-04-03T11:06:47.189Z,8.84
2023-04-03T11:07:47.183Z,8.87
2023-04-03T11:08:47.203Z,8.91
2023-04-03T11:09:47.151Z,8.97
2023-04-03T11:10:47.174Z,9.02
2023-04-03T11:11:47.504Z,9.06
2023-04-03T11:12:47.956Z,9.11
2023-04-03T11:13:47.104Z,9.13
2023-04-03T11:14:47.112Z,9.16
2023-04-03T11:15:47.167Z,9.18
2023-04-03T11:16:53.393Z,9.18
2023-04-03T11:17:48.101Z,9.18
2023-04-03T11:18:47.060Z,9.19
2023-04-03T11:19:47.038Z,9.21
2023-04-03T11:20:47.068Z,9.23
2023-04-03T11:21:47.064Z,9.29
2023-04-03T11:22:47.074Z,9.32
2023-04-03T11:23:50.003Z,9.37
2023-04-03T11:24:51.421Z,9.41
2023-04-03T11:25:47.010Z,9.44
2023-04-03T11:26:46.972Z,9.44
2023-04-03T11:27:47.010Z,9.41
2023-04-03T11:28:46.958Z,9.40
2023-04-03T11:29:46.930Z,9.36
2023-04-03T11:30:46.950Z,9.31
2023-04-03T11:31:46.943Z,9.31
2023-04-03T11:32:46.920Z,9.32
2023-04-03T11:33:46.886Z,9.34
2023-04-03T11:34:46.909Z,9.36
2023-04-03T11:35:46.901Z,9.37
2023-04-03T11:36:46.952Z,9.37
2023-04-03T11:37:46.841Z,9.40
2023-04-03T11:38:46.843Z,9.41
2023-04-03T11:39:46.852Z,9.46
2023-04-03T11:40:46.818Z,9.44
2023-04-03T11:41:46.829Z,9.47
2023-04-03T11:42:46.807Z,9.46
2023-04-03T11:43:47.634Z,9.48
2023-04-03T11:44:46.769Z,9.47
2023-04-03T11:45:46.757Z,9.46
2023-04-03T11:46:46.806Z,9.43
2023-04-03T11:47:46.763Z,9.39
2023-04-03T11:48:46.721Z,9.41
2023-04-03T11:49:46.734Z,9.40
2023-04-03T11:50:46.700Z,9.41
2023-04-03T11:51:46.716Z,9.41
2023-04-03T11:52:46.670Z,9.41
2023-04-03T11:53:46.665Z,9.41
2023-04-03T11:54:46.692Z,9.41
2023-04-03T11:55:47.678Z,9.41
2023-04-03T11:56:46.629Z,9.43
2023-04-03T11:57:46.629Z,9.44
2023-04-03T11:58:46.600Z,9.48
2023-04-03T11:59:46.604Z,9.46
2023-04-03T12:00:46.590Z,9.46
2023-04-03T12:01:46.678Z,9.44
2023-04-03T12:02:54.191Z,9.44
2023-04-03T12:03:47.605Z,9.44
2023-04-03T12:04:46.568Z,9.46
2023-04-03T12:05:46.534Z,9.43
2023-04-03T12:06:46.525Z,9.43
2023-04-03T12:07:46.491Z,9.46
2023-04-03T12:08:46.491Z,9.44
2023-04-03T12:09:46.482Z,9.48
2023-04-03T12:10:46.496Z,9.47
2023-04-03T12:11:46.485Z,9.47
2023-04-03T12:12:46.439Z,9.50
2023-04-03T12:13:46.472Z,9.51
2023-04-03T12:14:46.440Z,9.54
2023-04-03T12:15:46.424Z,9.58
2023-04-03T12:16:46.446Z,9.58
2023-04-03T12:17:46.455Z,9.62
2023-04-03T12:18:46.574Z,9.65
2023-04-03T12:19:46.415Z,9.66
2023-04-03T12:20:46.366Z,9.69
2023-04-03T12:21:46.352Z,9.73
2023-04-03T12:22:46.383Z,9.77
2023-04-03T12:23:46.351Z,9.84
2023-04-03T12:24:46.468Z,9.87
2023-04-03T12:25:46.320Z,9.92
2023-04-03T12:26:49.076Z,9.97
2023-04-03T12:27:46.289Z,10.04
2023-04-03T12:28:46.287Z,10.13
2023-04-03T12:29:46.367Z,10.22
2023-04-03T12:30:46.308Z,10.31
2023-04-03T12:31:47.767Z,10.41
2023-04-03T12:32:46.313Z,10.59
2023-04-03T12:33:46.214Z,10.72
2023-04-03T12:34:46.203Z,10.93
2023-04-03T12:35:46.252Z,11.15
2023-04-03T12:36:46.168Z,11.44
2023-04-03T12:37:46.193Z,11.72
2023-04-03T12:38:46.163Z,11.99
2023-04-03T12:39:46.157Z,12.25
2023-04-03T12:40:46.193Z,12.50
2023-04-03T12:41:47.611Z,12.78
2023-04-03T12:42:46.128Z,13.05
2023-04-03T12:43:46.183Z,13.37
2023-04-03T12:44:46.098Z,13.67
2023-04-03T12:45:46.118Z,13.95
2023-04-03T12:46:46.150Z,14.17
2023-04-03T12:47:46.102Z,14.37
2023-04-03T12:48:46.043Z,14.55
2023-04-03T12:49:46.108Z,14.65
2023-04-03T12:50:46.113Z,14.77
2023-04-03T12:51:46.009Z,14.81
2023-04-03T12:52:46.013Z,14.84
2023-04-03T12:53:46.078Z,14.91
2023-04-03T12:54:45.984Z,14.92
2023-04-03T12:55:45.986Z,14.96
2023-04-03T12:56:45.988Z,15.06
2023-04-03T12:57:45.948Z,15.22
2023-04-03T12:58:45.939Z,15.42
2023-04-03T12:59:45.944Z,15.61
2023-04-03T13:00:45.961Z,15.70
2023-04-03T13:01:45.950Z,15.79
2023-04-03T13:02:45.941Z,15.94
2023-04-03T13:03:46.024Z,16.10
2023-04-03T13:04:45.885Z,16.31
2023-04-03T13:05:45.904Z,16.54
2023-04-03T13:06:45.879Z,16.66
2023-04-03T13:07:45.844Z,16.69
2023-04-03T13:08:45.856Z,16.69
2023-04-03T13:09:45.818Z,16.68
2023-04-03T13:10:45.811Z,16.58
2023-04-03T13:11:45.836Z,16.46
2023-04-03T13:12:46.835Z,16.28
2023-04-03T13:13:45.784Z,16.09
2023-04-03T13:14:45.801Z,15.94
2023-04-03T13:15:45.774Z,15.79
2023-04-03T13:16:45.746Z,15.72
2023-04-03T13:17:45.780Z,15.68
2023-04-03T13:18:45.752Z,15.82
2023-04-03T13:19:45.752Z,16.01